Time;durP1;ratioP1;P1;durP2;ratioP2;P2;SDS_P1;SDS_P2;PMS_P1;PMS_P2;Temp;Humidity;BMP_temperature;BMP_pressure;BME280_temperature;BME280_humidity;BME280_pressure;Samples;Min_cycle;Max_cycle;Signal;HPM_P1;HPM_P2
2023/03/15 00:00:49;;;;;;;4.07;1.00;;;3.50;99.90;;;;;;4933896;29;20062;-71
2023/03/15 00:03:15;;;;;;;6.80;1.30;;;3.50;99.90;;;;;;4949970;28;20142;-73
2023/03/15 00:05:42;;;;;;;3.95;1.15;;;3.40;99.90;;;;;;4934457;29;20052;-72
2023/03/15 00:08:08;;;;;;;7.85;2.00;;;3.30;99.90;;;;;;4950503;29;20126;-72
2023/03/15 00:10:33;;;;;;;;;;;3.30;99.90;;;;;;4953727;29;20475;-72
2023/03/15 00:12:59;;;;;;;5.03;1.10;;;4.30;99.90;;;;;;4969305;28;19974;-72
2023/03/15 00:15:25;;;;;;;;;;;3.20;99.90;;;;;;4937058;29;20483;-72
2023/03/15 00:17:53;;;;;;;8.27;1.40;;;4.00;99.90;;;;;;4937273;29;19922;-72
2023/03/15 00:20:22;;;;;;;8.05;1.20;;;3.10;99.90;;;;;;4936891;29;20503;-72
2023/03/15 00:22:48;;;;;;;8.82;1.77;;;3.10;99.90;;;;;;4936450;29;20052;-72
2023/03/15 00:25:13;;;;;;;;;;;3.10;99.90;;;;;;4937337;29;20040;-72
2023/03/15 00:27:39;;;;;;;7.30;1.63;;;3.00;99.90;;;;;;4936173;29;19927;-72
2023/03/15 00:30:04;;;;;;;;;;;3.00;99.90;;;;;;4937459;29;20047;-72
2023/03/15 00:32:30;;;;;;;9.32;1.25;;;3.00;99.90;;;;;;4936904;29;19922;-72
2023/03/15 00:34:56;;;;;;;;;;;5.00;99.90;;;;;;4954155;29;20035;-72
2023/03/15 00:37:24;;;;;;;6.75;1.10;;;2.30;99.90;;;;;;4936333;29;20005;-72
2023/03/15 00:39:50;;;;;;;5.43;0.90;;;2.90;99.90;;;;;;4937119;29;20067;-71
2023/03/15 00:42:16;;;;;;;7.95;1.27;;;2.90;99.90;;;;;;4936761;29;20448;-72
2023/03/15 00:44:43;;;;;;;;;;;2.80;99.90;;;;;;4938328;29;20051;-72
2023/03/15 00:47:10;;;;;;;4.67;1.00;;;2.80;99.90;;;;;;4957789;29;19986;-72
2023/03/15 00:49:35;;;;;;;5.18;1.40;;;2.70;99.90;;;;;;4956936;29;20644;-72
2023/03/15 00:52:01;;;;;;;;;;;2.70;99.90;;;;;;4957654;29;20050;-72
2023/03/15 00:54:26;;;;;;;3.92;1.20;;;2.60;99.90;;;;;;4940158;29;19928;-72
2023/03/15 00:56:52;;;;;;;;;;;2.80;99.90;;;;;;4940511;29;20077;-72
2023/03/15 00:59:17;;;;;;;4.63;1.30;;;2.90;99.90;;;;;;4939833;29;20009;-72
2023/03/15 01:01:43;;;;;;;;;;;2.70;99.90;;;;;;4958015;29;20078;-72
2023/03/15 01:04:12;;;;;;;3.85;1.10;;;3.40;99.90;;;;;;4978008;28;20423;-72
2023/03/15 01:06:39;;;;;;;13.68;3.00;;;2.60;99.90;;;;;;4957198;28;20089;-72
2023/03/15 01:09:04;;;;;;;6.38;1.33;;;2.60;99.90;;;;;;4957326;28;20049;-72
2023/03/15 01:11:30;;;;;;;;;;;2.50;99.90;;;;;;4988205;28;20027;-72
2023/03/15 01:13:57;;;;;;;9.05;1.20;;;2.50;99.90;;;;;;4957342;28;19930;-72
2023/03/15 01:16:24;;;;;;;8.52;1.25;;;2.40;99.90;;;;;;4953737;28;20043;-72
2023/03/15 01:18:50;;;;;;;4.40;2.25;;;2.30;99.90;;;;;;4955135;28;20046;-73
2023/03/15 01:21:16;;;;;;;4.65;1.17;;;2.20;99.90;;;;;;4955785;28;20074;-72
2023/03/15 01:23:42;;;;;;;7.22;1.20;;;2.20;99.90;;;;;;4956676;29;20089;-73
2023/03/15 01:26:10;;;;;;;;;;;2.20;99.90;;;;;;4957079;29;20495;-73
2023/03/15 01:28:35;;;;;;;3.80;0.90;;;2.10;99.90;;;;;;4956917;28;20020;-72
2023/03/15 01:31:01;;;;;;;;;;;2.10;99.90;;;;;;4957099;29;20102;-72
2023/03/15 01:33:27;;;;;;;4.10;1.00;;;2.70;99.90;;;;;;4956852;29;19950;-72
2023/03/15 01:36:06;;;;;;;8.65;1.92;;;2.10;99.90;;;;;;4988163;28;20079;-73
2023/03/15 01:38:32;;;;;;;2.40;0.98;;;2.10;99.90;;;;;;4956268;29;20089;-72
2023/03/15 01:40:58;;;;;;;4.78;1.15;;;2.10;99.90;;;;;;4956586;29;20039;-73
2023/03/15 01:43:26;;;;;;;3.63;1.08;;;1.90;99.90;;;;;;4955442;28;20079;-73
2023/03/15 01:46:01;;;;;;;5.68;1.77;;;4.10;99.90;;;;;;4987072;28;20075;-72
2023/03/15 01:48:43;;;;;;;4.00;0.80;;;2.10;99.90;;;;;;4955026;29;20047;-73
2023/03/15 01:51:31;;;;;;;3.05;0.80;;;2.00;99.90;;;;;;4955879;29;20078;-73
2023/03/15 01:54:06;;;;;;;5.38;1.00;;;2.00;99.90;;;;;;4951493;28;20083;-73
2023/03/15 01:56:39;;;;;;;6.13;1.10;;;1.90;99.90;;;;;;4966879;28;20051;-73
2023/03/15 01:59:11;;;;;;;5.10;1.08;;;1.90;99.90;;;;;;4987081;28;20086;-72
2023/03/15 02:01:44;;;;;;;3.28;1.00;;;1.80;99.90;;;;;;4956189;28;20062;-73
2023/03/15 02:04:16;;;;;;;2.63;0.80;;;1.80;99.90;;;;;;4955165;29;20058;-72
2023/03/15 02:06:45;;;;;;;4.40;0.93;;;1.70;99.90;;;;;;4955305;28;20051;-72
2023/03/15 02:09:14;;;;;;;3.58;0.90;;;1.70;99.90;;;;;;4955097;29;20047;-73
2023/03/15 02:11:40;;;;;;;5.22;1.10;;;1.60;99.90;;;;;;4940084;29;20138;-72
2023/03/15 02:14:06;;;;;;;4.63;1.00;;;1.60;99.90;;;;;;4955389;29;20059;-72
2023/03/15 02:16:32;;;;;;;5.60;1.08;;;1.50;99.90;;;;;;4986849;28;20415;-72
2023/03/15 02:18:58;;;;;;;2.53;0.80;;;1.50;99.90;;;;;;4956366;29;20067;-72
2023/03/15 02:21:27;;;;;;;;;;;1.90;99.90;;;;;;4986776;28;20043;-72
2023/03/15 02:24:18;;;;;;;4.35;1.00;;;1.50;99.90;;;;;;4954673;29;20025;-72
2023/03/15 02:26:52;;;;;;;8.05;1.20;;;1.40;99.90;;;;;;4970814;28;20138;-72
2023/03/15 02:29:18;;;;;;;5.90;1.17;;;1.40;99.90;;;;;;4954013;28;20054;-72
2023/03/15 02:31:43;;;;;;;;;;;1.30;99.90;;;;;;4955240;29;20047;-72
2023/03/15 02:34:09;;;;;;;9.15;1.08;;;3.50;99.90;;;;;;4954287;29;20313;-72
2023/03/15 02:36:35;;;;;;;;;;;1.30;99.90;;;;;;4954942;29;20500;-72
2023/03/15 02:39:12;;;;;;;4.22;1.00;;;1.20;99.90;;;;;;4987247;28;19978;-72
2023/03/15 02:41:41;;;;;;;7.95;1.20;;;1.30;99.90;;;;;;4946643;29;20069;-72
2023/03/15 02:44:18;;;;;;;4.85;1.75;;;1.90;99.90;;;;;;4955360;29;20094;-72
2023/03/15 02:46:46;;;;;;;6.50;1.00;;;1.40;99.90;;;;;;4954238;29;20487;-72
2023/03/15 02:49:13;;;;;;;6.38;1.10;;;1.50;99.90;;;;;;4954096;29;20059;-73
2023/03/15 02:51:39;;;;;;;7.13;1.52;;;1.50;99.90;;;;;;4954868;28;20058;-72
2023/03/15 02:54:04;;;;;;;;;;;1.50;99.90;;;;;;4987041;28;20394;-72
2023/03/15 02:56:32;;;;;;;6.97;1.55;;;1.50;99.90;;;;;;4954772;29;19961;-73
2023/03/15 02:58:58;;;;;;;9.95;1.73;;;1.50;99.90;;;;;;4953967;29;20058;-72
2023/03/15 03:01:23;;;;;;;;;;;1.50;99.90;;;;;;4955749;28;20118;-72
2023/03/15 03:03:49;;;;;;;7.20;2.13;;;1.50;99.90;;;;;;4985745;28;20342;-72
2023/03/15 03:06:15;;;;;;;;;;;1.40;99.90;;;;;;4955613;28;20051;-73
2023/03/15 03:08:46;;;;;;;4.95;0.85;;;1.30;99.90;;;;;;4954752;28;19923;-72
2023/03/15 03:11:15;;;;;;;2.63;1.15;;;1.30;99.90;;;;;;4969430;28;20051;-72
2023/03/15 03:13:41;;;;;;;5.68;0.80;;;1.90;99.90;;;;;;4955106;28;20043;-72
2023/03/15 03:16:08;;;;;;;7.20;1.13;;;1.20;99.90;;;;;;4970320;28;20047;-72
2023/03/15 03:18:34;;;;;;;7.50;1.15;;;1.20;99.90;;;;;;4952968;29;20051;-72
2023/03/15 03:21:04;;;;;;;3.67;1.00;;;1.10;99.90;;;;;;4970502;28;20043;-72
2023/03/15 03:23:32;;;;;;;3.35;0.98;;;1.10;99.90;;;;;;4954400;28;20058;-72
2023/03/15 03:25:59;;;;;;;2.83;1.08;;;1.00;99.90;;;;;;4985817;28;20043;-72
2023/03/15 03:28:26;;;;;;;3.72;0.80;;;1.00;99.90;;;;;;4985863;28;20051;-72
2023/03/15 03:30:53;;;;;;;8.43;1.10;;;0.90;99.90;;;;;;4954544;28;20403;-72
2023/03/15 03:33:20;;;;;;;7.20;0.90;;;0.80;99.90;;;;;;4954666;28;20059;-72
2023/03/15 03:35:46;;;;;;;5.85;1.10;;;0.90;99.90;;;;;;4954940;29;20043;-72
2023/03/15 03:38:11;;;;;;;;;;;0.90;99.90;;;;;;4953428;28;20031;-72
2023/03/15 03:40:38;;;;;;;2.33;1.02;;;0.90;99.90;;;;;;4953064;29;19985;-72
2023/03/15 03:43:05;;;;;;;5.82;1.10;;;0.90;99.90;;;;;;4953873;28;20133;-72
2023/03/15 03:45:30;;;;;;;3.63;1.10;;;0.90;99.90;;;;;;4953730;28;20175;-72
2023/03/15 03:47:56;;;;;;;;;;;0.90;99.90;;;;;;4955012;29;20122;-72
2023/03/15 03:50:21;;;;;;;4.53;1.10;;;1.30;99.90;;;;;;4954388;29;19922;-73
2023/03/15 03:52:47;;;;;;;;;;;0.90;99.90;;;;;;4954494;29;20051;-73
2023/03/15 03:55:13;;;;;;;4.65;0.95;;;0.90;99.90;;;;;;4985777;28;19923;-73
2023/03/15 03:57:39;;;;;;;;;;;2.20;99.90;;;;;;4952565;29;20062;-72
2023/03/15 04:00:07;;;;;;;7.77;1.20;;;0.90;99.90;;;;;;4954100;28;19923;-73
2023/03/15 04:02:33;;;;;;;4.05;1.00;;;0.80;99.90;;;;;;4953289;29;20538;-73
2023/03/15 04:04:58;;;;;;;;;;;0.80;99.90;;;;;;4954644;28;20046;-73
2023/03/15 04:07:24;;;;;;;2.78;1.23;;;0.70;99.90;;;;;;4953349;29;19930;-72
2023/03/15 04:09:50;;;;;;;;;;;0.70;99.90;;;;;;4933873;29;20048;-72
2023/03/15 04:12:15;;;;;;;7.28;1.20;;;0.70;99.90;;;;;;4934391;29;19923;-72
2023/03/15 04:14:41;;;;;;;;;;;0.70;99.90;;;;;;4941761;29;20402;-72
2023/03/15 04:17:09;;;;;;;5.88;1.30;;;0.70;99.90;;;;;;4954495;29;19922;-72
2023/03/15 04:19:35;;;;;;;4.93;1.17;;;0.10;99.90;;;;;;4955405;28;20059;-73
2023/03/15 04:22:05;;;;;;;;;;;0.60;99.90;;;;;;4972869;28;20035;-73
2023/03/15 04:24:35;;;;;;;5.95;1.52;;;1.10;99.90;;;;;;4958114;29;19965;-73
2023/03/15 04:27:01;;;;;;;4.28;1.38;;;0.70;99.90;;;;;;4956324;29;20130;-73
2023/03/15 04:29:28;;;;;;;6.40;1.50;;;0.70;99.90;;;;;;4946403;29;20071;-73
2023/03/15 04:32:00;;;;;;;5.85;1.30;;;0.70;99.90;;;;;;4949166;29;20050;-72
2023/03/15 04:34:27;;;;;;;4.43;1.30;;;2.40;99.90;;;;;;4957189;29;20083;-73
2023/03/15 04:36:53;;;;;;;4.68;1.13;;;0.60;99.90;;;;;;4940658;29;20101;-73
2023/03/15 04:39:19;;;;;;;5.55;1.55;;;0.60;99.90;;;;;;4958004;29;20078;-75
2023/03/15 04:41:45;;;;;;;;;;;0.50;99.90;;;;;;4957601;29;20118;-73
2023/03/15 04:44:10;;;;;;;7.90;1.20;;;0.40;99.90;;;;;;4957056;29;20474;-73
2023/03/15 04:46:36;;;;;;;;;;;0.40;99.90;;;;;;4958103;29;20043;-74
2023/03/15 04:49:03;;;;;;;5.03;1.30;;;0.30;99.90;;;;;;4939736;29;19930;-72
2023/03/15 04:51:29;;;;;;;7.45;1.70;;;0.20;99.90;;;;;;4953468;29;20055;-73
2023/03/15 04:53:55;;;;;;;;;;;0.20;99.90;;;;;;4957765;29;20394;-73
2023/03/15 04:56:20;;;;;;;3.67;1.33;;;-0.30;99.90;;;;;;4956859;29;19927;-72
2023/03/15 04:58:46;;;;;;;;;;;0.20;99.90;;;;;;4956726;29;20098;-72
2023/03/15 05:01:12;;;;;;;4.00;1.20;;;0.20;99.90;;;;;;4940228;29;19922;-73
2023/03/15 05:03:37;;;;;;;5.50;1.20;;;0.10;99.90;;;;;;4955899;29;20454;-72
2023/03/15 05:06:06;;;;;;;;;;;0.10;99.90;;;;;;4940990;29;20075;-73
2023/03/15 05:08:34;;;;;;;3.63;1.10;;;0.10;99.90;;;;;;4957364;29;19928;-73
2023/03/15 05:11:00;;;;;;;6.13;1.35;;;1.80;99.90;;;;;;4945456;29;20044;-72
2023/03/15 05:13:28;;;;;;;;;;;0.10;99.90;;;;;;4956588;29;20058;-73
2023/03/15 05:15:54;;;;;;;7.85;2.33;;;0.10;99.90;;;;;;4957095;29;19922;-73
2023/03/15 05:18:20;;;;;;;3.92;1.23;;;0.60;99.90;;;;;;4956703;29;20070;-73
2023/03/15 05:20:46;;;;;;;;;;;0.10;99.90;;;;;;4957200;29;20105;-73
2023/03/15 05:23:12;;;;;;;3.63;1.20;;;0.10;99.90;;;;;;4939482;29;19977;-73
2023/03/15 05:25:38;;;;;;;;;;;0.10;99.90;;;;;;4956834;28;20039;-73
2023/03/15 05:28:04;;;;;;;7.82;1.30;;;-1.60;99.90;;;;;;4940262;29;19929;-73
2023/03/15 05:30:30;;;;;;;6.90;1.88;;;0.00;99.90;;;;;;4955121;28;20043;-72
2023/03/15 05:32:56;;;;;;;6.43;2.40;;;0.60;99.90;;;;;;4939373;29;20043;-72
2023/03/15 05:35:25;;;;;;;;;;;0.00;99.90;;;;;;4957365;29;20081;-72
2023/03/15 05:37:51;;;;;;;7.88;2.55;;;0.00;99.90;;;;;;4956447;29;20334;-72
2023/03/15 05:40:17;;;;;;;5.10;1.95;;;0.00;99.90;;;;;;4956653;29;20086;-72
2023/03/15 05:42:43;;;;;;;;;;;0.00;99.90;;;;;;4940082;29;20130;-72
2023/03/15 05:45:09;;;;;;;7.90;2.70;;;0.00;99.90;;;;;;4956038;28;19927;-71
2023/03/15 05:47:35;;;;;;;10.18;2.05;;;-0.10;99.90;;;;;;4956251;29;20047;-72
2023/03/15 05:50:00;;;;;;;;;;;-0.10;99.90;;;;;;4956615;29;20031;-72
2023/03/15 05:52:26;;;;;;;6.80;2.40;;;-0.10;99.90;;;;;;4954463;29;20282;-73
2023/03/15 05:54:51;;;;;;;;;;;-0.10;99.90;;;;;;4957170;29;20099;-72
2023/03/15 05:57:17;;;;;;;15.13;5.68;;;-0.10;99.90;;;;;;4955231;29;19922;-72
2023/03/15 05:59:43;;;;;;;;;;;-0.10;99.90;;;;;;4938951;29;20126;-72
2023/03/15 06:02:08;;;;;;;10.82;3.60;;;-0.10;99.90;;;;;;4955291;29;19930;-73
2023/03/15 06:04:35;;;;;;;;;;;-0.10;99.90;;;;;;4939240;29;20053;-74
2023/03/15 06:07:00;;;;;;;8.37;2.60;;;-0.10;99.90;;;;;;4955132;29;20005;-72
2023/03/15 06:09:26;;;;;;;;;;;-0.20;99.90;;;;;;4939422;29;20700;-72
2023/03/15 06:11:52;;;;;;;8.82;2.20;;;-0.10;99.90;;;;;;4938778;29;19919;-72
2023/03/15 06:14:18;;;;;;;;;;;-0.10;99.90;;;;;;4938323;29;20123;-83
2023/03/15 06:16:43;;;;;;;7.13;1.90;;;0.30;99.90;;;;;;4938690;29;19926;-72
2023/03/15 06:19:09;;;;;;;;;;;0.10;99.90;;;;;;4941545;29;20553;-79
2023/03/15 06:21:34;;;;;;;10.80;2.13;;;1.60;99.90;;;;;;4970696;28;19922;-74
2023/03/15 06:24:00;;;;;;;;;;;1.30;99.90;;;;;;4971294;28;20190;-74
2023/03/15 06:26:25;;;;;;;12.30;1.80;;;0.30;99.90;;;;;;4955191;29;20359;-72
2023/03/15 06:28:51;;;;;;;;;;;0.30;99.90;;;;;;4970792;28;20054;-74
2023/03/15 06:31:17;;;;;;;7.30;1.67;;;0.40;99.90;;;;;;4938075;29;19922;-74
2023/03/15 06:33:42;;;;;;;;;;;0.30;99.90;;;;;;4944151;29;20072;-78
2023/03/15 06:36:11;;;;;;;6.85;2.20;;;0.50;99.90;;;;;;4937910;29;19922;-76
2023/03/15 06:38:37;;;;;;;7.45;2.10;;;-0.80;99.90;;;;;;4944256;29;20046;-82
2023/03/15 06:41:04;;;;;;;;;;;0.70;99.90;;;;;;4955360;28;20043;-75
2023/03/15 06:43:30;;;;;;;8.55;2.05;;;0.80;99.90;;;;;;4955180;29;19927;-73
2023/03/15 06:45:58;;;;;;;7.90;1.70;;;0.90;99.90;;;;;;4938315;29;20142;-74
2023/03/15 06:48:25;;;;;;;5.60;1.52;;;1.10;99.90;;;;;;4954757;29;20145;-80
2023/03/15 06:50:51;;;;;;;6.40;1.90;;;1.50;99.90;;;;;;4970068;28;20039;-75
2023/03/15 06:53:16;;;;;;;;;;;1.70;99.90;;;;;;4937288;29;20125;-71
2023/03/15 06:55:43;;;;;;;4.75;0.95;;;1.80;99.90;;;;;;4953839;29;20316;-70
2023/03/15 06:58:09;;;;;;;4.15;1.05;;;1.90;99.90;;;;;;4953769;29;20035;-72
2023/03/15 07:00:35;;;;;;;;;;;2.00;99.90;;;;;;4954246;29;20562;-69
2023/03/15 07:03:00;;;;;;;2.50;0.82;;;2.10;99.90;;;;;;4954165;29;19922;-71
2023/03/15 07:05:26;;;;;;;;;;;2.60;99.90;;;;;;4937722;29;20098;-70
2023/03/15 07:07:52;;;;;;;6.13;1.33;;;2.20;99.90;;;;;;4969456;28;19945;-70
2023/03/15 07:10:17;;;;;;;;;;;2.30;99.90;;;;;;4950220;29;20067;-70
2023/03/15 07:12:43;;;;;;;4.47;1.15;;;2.30;99.90;;;;;;4938022;29;20013;-69
2023/03/15 07:15:14;;;;;;;;;;;2.40;99.90;;;;;;4970510;28;20106;-70
2023/03/15 07:17:40;;;;;;;3.33;1.13;;;2.40;99.90;;;;;;4936982;29;19937;-70
2023/03/15 07:20:07;;;;;;;;;;;2.40;99.90;;;;;;4938624;29;20047;-73
2023/03/15 07:22:33;;;;;;;2.57;1.00;;;2.40;99.90;;;;;;4937237;29;19922;-71
2023/03/15 07:24:59;;;;;;;6.07;0.90;;;2.40;99.90;;;;;;4937542;29;20093;-71
2023/03/15 07:27:25;;;;;;;;;;;2.50;99.90;;;;;;4937598;29;20047;-70
2023/03/15 07:29:51;;;;;;;4.55;1.00;;;2.40;99.90;;;;;;4953226;29;19929;-72
2023/03/15 07:32:16;;;;;;;;;;;2.50;99.90;;;;;;4955434;29;20065;-72
2023/03/15 07:34:42;;;;;;;5.35;1.50;;;2.50;99.90;;;;;;4954871;29;19922;-72
2023/03/15 07:37:08;;;;;;;;;;;2.60;99.90;;;;;;4953200;29;20047;-71
2023/03/15 07:39:33;;;;;;;2.97;0.90;;;2.70;99.90;;;;;;4937060;29;19929;-73
2023/03/15 07:41:59;;;;;;;;;;;2.70;99.90;;;;;;4955039;29;20487;-73
2023/03/15 07:44:25;;;;;;;5.38;1.65;;;2.80;99.90;;;;;;4953485;29;19919;-74
2023/03/15 07:46:51;;;;;;;;;;;2.90;99.90;;;;;;4954953;29;20047;-74
2023/03/15 07:49:16;;;;;;;6.80;1.65;;;3.30;99.90;;;;;;4935181;29;19974;-74
2023/03/15 07:51:44;;;;;;;5.22;1.10;;;3.00;99.90;;;;;;4934019;28;20048;-74
2023/03/15 07:54:10;;;;;;;;;;;3.70;99.90;;;;;;4952756;28;20138;-75
2023/03/15 07:56:35;;;;;;;4.55;1.10;;;4.90;99.90;;;;;;4953908;29;19923;-75
2023/03/15 07:59:01;;;;;;;;;;;6.70;99.90;;;;;;4937242;29;20410;-75
2023/03/15 08:01:27;;;;;;;5.43;1.05;;;8.40;99.90;;;;;;4937285;29;19927;-73
2023/03/15 08:03:52;;;;;;;;;;;9.80;99.90;;;;;;4941215;29;20056;-74
2023/03/15 08:06:18;;;;;;;3.20;1.05;;;10.80;99.90;;;;;;4970359;28;19953;-73
2023/03/15 08:08:43;;;;;;;;;;;11.80;99.90;;;;;;4937934;29;20083;-73
2023/03/15 08:11:09;;;;;;;5.18;1.70;;;12.60;97.30;;;;;;4954427;29;19922;-73
2023/03/15 08:13:35;;;;;;;;;;;13.10;99.20;;;;;;4936871;29;20131;-74
2023/03/15 08:16:00;;;;;;;3.50;1.50;;;13.60;95.70;;;;;;4937239;29;19922;-74
2023/03/15 08:18:29;;;;;;;;;;;14.30;95.70;;;;;;4954658;29;20047;-73
2023/03/15 08:20:55;;;;;;;5.18;1.20;;;14.40;92.50;;;;;;4948571;29;19922;-74
2023/03/15 08:23:21;;;;;;;6.93;1.60;;;14.60;94.00;;;;;;4953032;28;20126;-74
2023/03/15 08:25:46;;;;;;;6.13;1.35;;;15.40;93.80;;;;;;4953351;29;20131;-73
2023/03/15 08:28:13;;;;;;;10.07;4.32;;;15.80;92.50;;;;;;4953011;29;20087;-74
2023/03/15 08:30:39;;;;;;;5.38;1.83;;;16.40;90.00;;;;;;4985432;28;20351;-74
2023/03/15 08:33:06;;;;;;;3.53;1.20;;;16.20;90.60;;;;;;4953832;28;20043;-74
2023/03/15 08:35:33;;;;;;;3.72;1.00;;;16.70;85.50;;;;;;4984724;28;20047;-73
2023/03/15 08:38:01;;;;;;;9.75;4.38;;;16.50;86.30;;;;;;4954233;28;20044;-73
2023/03/15 08:40:28;;;;;;;5.78;2.13;;;16.90;84.90;;;;;;4984575;28;20393;-75
2023/03/15 08:42:54;;;;;;;3.83;1.27;;;17.10;83.40;;;;;;4969208;28;20050;-74
2023/03/15 08:45:22;;;;;;;8.13;1.73;;;17.30;85.00;;;;;;4950322;28;20058;-72
2023/03/15 08:47:48;;;;;;;6.05;1.40;;;18.20;86.30;;;;;;4944633;29;20043;-73
2023/03/15 08:50:15;;;;;;;4.45;1.92;;;17.80;83.80;;;;;;4953720;28;20050;-73
2023/03/15 08:52:42;;;;;;;5.13;1.98;;;17.70;82.60;;;;;;4953931;28;20078;-73
2023/03/15 08:55:09;;;;;;;4.60;1.63;;;17.30;82.80;;;;;;4953288;28;20055;-74
2023/03/15 08:57:35;;;;;;;5.40;1.60;;;17.20;83.40;;;;;;4952279;29;20051;-74
2023/03/15 09:00:09;;;;;;;5.28;1.40;;;16.80;82.40;;;;;;4953788;28;20102;-73
2023/03/15 09:02:35;;;;;;;5.05;1.30;;;17.40;81.60;;;;;;4951945;29;20047;-74
2023/03/15 09:05:02;;;;;;;5.68;1.50;;;17.30;80.70;;;;;;4954005;28;20422;-74
2023/03/15 09:07:31;;;;;;;8.13;2.38;;;17.30;82.40;;;;;;4956822;29;20043;-73
2023/03/15 09:09:57;;;;;;;5.35;1.20;;;17.80;82.80;;;;;;4956730;29;20715;-72
2023/03/15 09:12:22;;;;;;;5.80;1.48;;;17.90;82.10;;;;;;4940010;29;20509;-74
2023/03/15 09:14:48;;;;;;;6.72;2.30;;;18.30;78.40;;;;;;4940126;29;20510;-75
2023/03/15 09:17:14;;;;;;;4.18;1.10;;;17.90;79.50;;;;;;4939469;29;20050;-75
2023/03/15 09:19:40;;;;;;;6.57;1.58;;;18.10;80.00;;;;;;4939718;29;20499;-73
2023/03/15 09:22:06;;;;;;;6.07;1.30;;;18.40;75.40;;;;;;4939581;29;20082;-74
2023/03/15 09:24:32;;;;;;;9.38;1.83;;;18.50;77.80;;;;;;4956928;29;20050;-73
2023/03/15 09:26:57;;;;;;;5.82;2.00;;;18.60;77.10;;;;;;4957152;29;20047;-74
2023/03/15 09:29:23;;;;;;;5.75;1.58;;;19.40;75.40;;;;;;4939401;29;20066;-75
2023/03/15 09:31:49;;;;;;;7.10;1.80;;;19.00;72.70;;;;;;4940642;29;20086;-75
2023/03/15 09:34:15;;;;;;;3.63;1.30;;;19.60;74.30;;;;;;4956989;29;20043;-75
2023/03/15 09:36:41;;;;;;;4.85;1.33;;;19.40;75.20;;;;;;4938731;29;20055;-73
2023/03/15 09:39:07;;;;;;;7.00;1.45;;;19.30;71.80;;;;;;4939962;29;20073;-75
2023/03/15 09:41:35;;;;;;;5.50;1.55;;;19.60;69.70;;;;;;4947939;29;20051;-75
2023/03/15 09:44:16;;;;;;;7.35;1.40;;;19.60;68.10;;;;;;4970957;28;20522;-74
2023/03/15 09:46:54;;;;;;;5.68;1.50;;;19.50;69.30;;;;;;4956010;28;20035;-79
2023/03/15 09:49:44;;;;;;;8.82;1.52;;;19.80;67.20;;;;;;4956505;29;20058;-74
2023/03/15 09:52:26;;;;;;;5.40;1.52;;;19.20;67.70;;;;;;4938706;29;20081;-75
2023/03/15 09:54:58;;;;;;;6.88;1.30;;;17.70;67.00;;;;;;4956855;29;20481;-75
2023/03/15 09:57:30;;;;;;;6.10;1.70;;;16.10;69.10;;;;;;4938805;29;20058;-75
2023/03/15 09:59:58;;;;;;;6.80;1.52;;;16.00;71.50;;;;;;4956567;29;20110;-75
2023/03/15 10:02:28;;;;;;;5.40;1.55;;;15.10;70.90;;;;;;4956172;29;20488;-75
2023/03/15 10:05:12;;;;;;;5.28;1.38;;;14.60;74.70;;;;;;4955578;29;20419;-75
2023/03/15 10:07:38;;;;;;;4.35;1.40;;;15.70;73.60;;;;;;4938834;29;20546;-75
2023/03/15 10:10:15;;;;;;;6.63;1.42;;;17.30;70.00;;;;;;4944716;29;20047;-74
2023/03/15 10:12:45;;;;;;;7.65;1.25;;;18.30;68.70;;;;;;4959319;28;20055;-75
2023/03/15 10:15:39;;;;;;;3.40;1.10;;;18.90;65.10;;;;;;4950430;28;20075;-77
2023/03/15 10:18:17;;;;;;;5.20;1.10;;;19.20;66.30;;;;;;4941503;29;20043;-78
2023/03/15 10:20:52;;;;;;;8.18;1.52;;;20.10;67.20;;;;;;4943391;29;20113;-76
2023/03/15 10:23:27;;;;;;;5.82;1.60;;;20.00;64.40;;;;;;4956252;29;20126;-77
2023/03/15 10:25:53;;;;;;;4.05;1.15;;;20.30;65.90;;;;;;4938144;29;20130;-76
2023/03/15 10:28:28;;;;;;;6.25;1.40;;;20.60;66.00;;;;;;4955271;29;20162;-74
2023/03/15 10:30:59;;;;;;;4.97;1.52;;;19.90;62.60;;;;;;4955857;28;20036;-74
2023/03/15 10:33:34;;;;;;;4.45;1.27;;;20.10;64.70;;;;;;4955154;29;20047;-73
2023/03/15 10:36:01;;;;;;;8.00;1.40;;;20.40;63.70;;;;;;4955975;29;20110;-74
2023/03/15 10:38:27;;;;;;;6.45;1.40;;;20.80;64.60;;;;;;4938276;29;20071;-74
2023/03/15 10:40:54;;;;;;;4.65;1.42;;;21.20;63.30;;;;;;4969517;28;20043;-74
2023/03/15 10:43:25;;;;;;;4.68;1.25;;;21.20;61.20;;;;;;4952279;29;20054;-74
2023/03/15 10:46:27;;;;;;;6.75;1.52;;;21.20;59.30;;;;;;4955545;29;20400;-73
2023/03/15 10:49:09;;;;;;;4.32;1.38;;;21.00;64.20;;;;;;4953304;28;20098;-75
2023/03/15 10:51:45;;;;;;;4.72;1.20;;;21.60;62.20;;;;;;4938217;29;20097;-74
2023/03/15 10:54:17;;;;;;;5.18;1.40;;;21.00;61.50;;;;;;4954694;29;20039;-74
2023/03/15 10:57:01;;;;;;;4.78;1.30;;;21.00;61.20;;;;;;4938379;29;20079;-74
2023/03/15 10:59:33;;;;;;;6.50;1.30;;;21.80;62.60;;;;;;4955184;29;20126;-74
2023/03/15 11:02:21;;;;;;;5.30;1.52;;;21.80;60.90;;;;;;4954552;29;20432;-74
2023/03/15 11:05:14;;;;;;;5.35;1.38;;;22.00;60.90;;;;;;4938013;29;20055;-74
2023/03/15 11:07:54;;;;;;;4.88;1.10;;;22.00;59.80;;;;;;4954427;29;20061;-74
2023/03/15 11:10:25;;;;;;;4.72;1.20;;;22.20;60.00;;;;;;4955092;29;20093;-74
2023/03/15 11:13:19;;;;;;;5.82;1.27;;;22.30;58.70;;;;;;4937778;29;20082;-74
2023/03/15 11:16:03;;;;;;;4.18;1.25;;;22.10;58.90;;;;;;4953522;29;20424;-75
2023/03/15 11:19:02;;;;;;;5.53;1.20;;;21.30;58.20;;;;;;4937788;29;20047;-75
2023/03/15 11:21:33;;;;;;;7.72;1.40;;;21.30;60.30;;;;;;4950158;29;20114;-75
2023/03/15 11:24:02;;;;;;;6.32;1.40;;;21.40;57.20;;;;;;4952201;29;20134;-74
2023/03/15 11:26:33;;;;;;;7.10;1.40;;;21.30;58.80;;;;;;4953613;29;20053;-75
2023/03/15 11:29:30;;;;;;;5.78;1.30;;;21.10;58.50;;;;;;4953231;28;20039;-75
2023/03/15 11:32:10;;;;;;;3.72;1.20;;;20.80;59.30;;;;;;4953726;29;20062;-75
2023/03/15 11:35:04;;;;;;;8.52;1.40;;;21.30;62.10;;;;;;4937398;29;20054;-75
2023/03/15 11:37:36;;;;;;;6.50;1.20;;;21.30;59.80;;;;;;4950945;29;20065;-75
2023/03/15 11:40:21;;;;;;;3.83;1.00;;;21.70;59.70;;;;;;4937899;29;20079;-75
2023/03/15 11:42:58;;;;;;;5.85;1.38;;;21.40;57.10;;;;;;4951382;29;20136;-75
2023/03/15 11:45:35;;;;;;;6.47;1.40;;;21.40;57.10;;;;;;4953321;29;20046;-75
2023/03/15 11:48:16;;;;;;;4.95;1.10;;;21.40;59.70;;;;;;4953429;29;20051;-75
2023/03/15 11:50:42;;;;;;;5.95;1.25;;;20.70;59.10;;;;;;4952160;29;20098;-75
2023/03/15 11:53:14;;;;;;;2.85;1.20;;;20.60;59.60;;;;;;4953650;29;20074;-75
2023/03/15 11:55:39;;;;;;;6.10;1.58;;;20.90;62.10;;;;;;4953221;29;20114;-75
2023/03/15 11:58:27;;;;;;;5.97;1.33;;;20.80;59.90;;;;;;4954031;29;20043;-75
2023/03/15 12:01:04;;;;;;;7.60;1.45;;;20.60;59.30;;;;;;4950361;29;20074;-75
2023/03/15 12:03:35;;;;;;;4.93;1.30;;;20.20;60.70;;;;;;4954143;29;20058;-75
2023/03/15 12:06:00;;;;;;;5.32;1.20;;;19.60;62.90;;;;;;4936583;29;20106;-75
2023/03/15 12:08:35;;;;;;;6.10;1.38;;;20.00;61.40;;;;;;4954145;29;20047;-75
2023/03/15 12:11:09;;;;;;;7.05;1.30;;;20.20;63.10;;;;;;4951765;29;20051;-75
2023/03/15 12:13:34;;;;;;;6.68;1.52;;;19.80;61.80;;;;;;4954679;29;20046;-75
2023/03/15 12:16:00;;;;;;;5.45;1.30;;;19.80;61.20;;;;;;4954319;29;20114;-74
2023/03/15 12:18:32;;;;;;;4.47;1.50;;;19.90;61.90;;;;;;4953497;29;20484;-76
2023/03/15 12:21:06;;;;;;;5.20;1.15;;;19.90;62.70;;;;;;4952687;29;20053;-76
2023/03/15 12:24:05;;;;;;;7.90;1.40;;;20.20;62.50;;;;;;4969188;28;20097;-76
2023/03/15 12:26:35;;;;;;;5.07;1.27;;;20.00;61.60;;;;;;4935861;29;20406;-75
2023/03/15 12:29:14;;;;;;;4.18;1.20;;;20.20;61.50;;;;;;4968877;28;20055;-75
2023/03/15 12:32:01;;;;;;;5.78;1.83;;;20.00;60.80;;;;;;4954216;29;20087;-75
2023/03/15 12:34:26;;;;;;;4.72;1.15;;;19.60;61.90;;;;;;4969061;28;20048;-75
2023/03/15 12:36:58;;;;;;;6.05;1.50;;;19.90;60.80;;;;;;4969016;28;20522;-75
2023/03/15 12:39:49;;;;;;;5.85;1.77;;;19.00;61.50;;;;;;4953851;28;20513;-75
2023/03/15 12:42:30;;;;;;;5.50;1.58;;;18.90;62.80;;;;;;4958253;29;20129;-75
2023/03/15 12:45:19;;;;;;;4.88;1.52;;;18.00;63.80;;;;;;4957579;29;20059;-75
2023/03/15 12:47:53;;;;;;;4.60;1.15;;;18.30;64.90;;;;;;4939699;29;20055;-75
2023/03/15 12:50:44;;;;;;;5.28;1.20;;;18.50;63.50;;;;;;4940236;29;20047;-75
2023/03/15 12:53:35;;;;;;;6.45;1.35;;;18.10;64.70;;;;;;4957254;29;20047;-75
2023/03/15 12:56:39;;;;;;;4.57;1.40;;;17.70;63.80;;;;;;4953567;28;20112;-75
2023/03/15 12:59:31;;;;;;;4.22;1.13;;;17.50;66.80;;;;;;4937453;29;20063;-75
2023/03/15 13:02:01;;;;;;;4.40;1.30;;;17.60;66.60;;;;;;4937820;29;20571;-75
2023/03/15 13:04:29;;;;;;;7.55;1.45;;;17.30;65.80;;;;;;4922073;29;20460;-75
2023/03/15 13:07:21;;;;;;;3.40;1.10;;;17.00;66.20;;;;;;4920895;29;20059;-74
2023/03/15 13:10:08;;;;;;;5.75;1.35;;;16.50;66.70;;;;;;4916308;29;20048;-75
2023/03/15 13:12:59;;;;;;;5.90;1.40;;;15.70;66.00;;;;;;4938064;29;20044;-74
2023/03/15 13:15:54;;;;;;;4.75;1.33;;;15.60;68.50;;;;;;4943853;29;20063;-74
2023/03/15 13:18:25;;;;;;;6.22;1.40;;;15.30;68.90;;;;;;4957145;29;20055;-75
2023/03/15 13:21:20;;;;;;;5.00;1.17;;;14.90;69.30;;;;;;4945822;29;20043;-75
2023/03/15 13:23:53;;;;;;;5.60;1.38;;;14.80;69.20;;;;;;4939688;29;20410;-75